KALM/ALM METAR and TAF weather

Enter ICAO airport designator
Station Type Date Time Source
KALM METAR 2020/01/18 04:35 UTC NOAA

KALM 180435Z AUTO 30004KT 10SM CLR 08/M03 A3017 RMK AO2


Station Type Date Time Source
KALM Decoded METAR 2020/01/18 04:35 UTC NOAA

Alamogordo-White, NM, United States (KALM) 32-50N 105-59W
Jan 17, 2020 - 11:35 PM EST / 2020.01.18 0435 UTC
Wind: from the WNW (300 degrees) at 5 MPH (4 KT):0
Visibility: 10 mile(s):0
Sky conditions: clear
Temperature: 46 F (8 C)
Dew Point: 26 F (-3 C)
Relative Humidity: 45%
Pressure (altimeter): 30.17 in. Hg (1021 hPa)
ob: KALM 180435Z AUTO 30004KT 10SM CLR 08/M03 A3017 RMK AO2
cycle: 4

Station Type Date Time Source
KALM TAF UTC NOAA

Error!

Example: see airport list